createdAt,value
2023-02-19T00:01:33.357Z,11.47
2023-02-19T00:04:03.578Z,11.33
2023-02-19T00:06:32.958Z,11.39
2023-02-19T00:09:01.602Z,10.97
2023-02-19T00:11:30.827Z,10.75
2023-02-19T00:13:59.328Z,10.60
2023-02-19T00:16:29.148Z,10.59
2023-02-19T00:18:57.869Z,10.57
2023-02-19T00:21:25.448Z,10.26
2023-02-19T00:23:54.262Z,10.12
2023-02-19T00:26:21.578Z,10.22
2023-02-19T00:28:49.911Z,10.05
2023-02-19T00:31:22.832Z,9.96
2023-02-19T00:33:52.014Z,10.13
2023-02-19T00:36:18.754Z,10.24
2023-02-19T00:38:46.206Z,10.23
2023-02-19T00:41:20.214Z,10.65
2023-02-19T00:43:54.226Z,10.66
2023-02-19T00:46:23.318Z,10.97
2023-02-19T00:48:50.562Z,10.92
2023-02-19T00:51:17.415Z,10.87
2023-02-19T00:53:44.436Z,10.92
2023-02-19T00:56:11.689Z,11.07
2023-02-19T00:58:38.623Z,11.28
2023-02-19T01:01:06.686Z,11.22
2023-02-19T01:03:34.918Z,10.95
2023-02-19T01:06:02.605Z,10.46
2023-02-19T01:08:31.141Z,10.85
2023-02-19T01:10:58.338Z,10.80
2023-02-19T01:13:25.437Z,10.68
2023-02-19T01:15:52.478Z,10.89
2023-02-19T01:18:19.080Z,10.66
2023-02-19T01:20:46.279Z,10.96
2023-02-19T01:23:13.998Z,11.18
2023-02-19T01:25:42.263Z,11.08
2023-02-19T01:28:11.016Z,11.06
2023-02-19T01:30:38.956Z,10.96
2023-02-19T01:33:06.982Z,10.69
2023-02-19T01:35:34.052Z,10.73
2023-02-19T01:38:00.667Z,10.66
2023-02-19T01:40:27.303Z,10.76
2023-02-19T01:42:54.098Z,10.78
2023-02-19T01:45:23.389Z,11.03
2023-02-19T01:47:58.941Z,10.95
2023-02-19T01:50:28.838Z,10.97
2023-02-19T01:52:55.771Z,11.09
2023-02-19T01:55:23.996Z,11.46
2023-02-19T01:57:55.475Z,11.47
2023-02-19T02:00:24.409Z,11.67
2023-02-19T02:02:54.929Z,11.97
2023-02-19T02:05:45.095Z,11.76
2023-02-19T02:08:32.109Z,12.12
2023-02-19T02:10:58.848Z,12.16
2023-02-19T02:13:25.536Z,12.29
2023-02-19T02:15:59.745Z,11.85
2023-02-19T02:18:41.201Z,11.50
2023-02-19T02:22:05.487Z,11.64
2023-02-19T02:24:49.389Z,11.72
2023-02-19T02:27:30.999Z,11.57
2023-02-19T02:30:15.710Z,11.48
2023-02-19T02:33:00.504Z,11.30
2023-02-19T02:35:32.914Z,11.25
2023-02-19T02:38:05.122Z,11.36
2023-02-19T02:40:31.923Z,11.29
2023-02-19T02:43:00.151Z,11.52
2023-02-19T02:45:35.520Z,11.86
2023-02-19T02:48:15.022Z,12.01
2023-02-19T02:50:51.190Z,11.94
2023-02-19T02:54:05.482Z,11.63
2023-02-19T02:56:33.509Z,11.60
2023-02-19T02:59:02.565Z,11.73
2023-02-19T03:02:00.913Z,11.61
2023-02-19T03:05:16.332Z,11.64
2023-02-19T03:07:58.061Z,11.55
2023-02-19T03:10:30.901Z,11.57
2023-02-19T03:13:18.908Z,11.68
2023-02-19T03:16:09.813Z,11.88
2023-02-19T03:18:58.653Z,11.79
2023-02-19T03:21:27.558Z,11.46
2023-02-19T03:24:15.759Z,11.19
2023-02-19T03:26:45.670Z,11.10
2023-02-19T03:29:28.976Z,11.29
2023-02-19T03:32:00.445Z,11.58
2023-02-19T03:34:35.254Z,11.62
2023-02-19T03:37:16.078Z,11.67
2023-02-19T03:39:46.463Z,11.55
2023-02-19T03:42:17.950Z,11.82
2023-02-19T03:45:02.576Z,11.62
2023-02-19T03:47:34.401Z,11.49
2023-02-19T03:50:08.865Z,11.68
2023-02-19T03:53:00.494Z,11.89
2023-02-19T03:55:38.936Z,11.63
2023-02-19T03:58:12.339Z,11.55
2023-02-19T04:00:52.352Z,11.67
2023-02-19T04:03:56.412Z,11.85
2023-02-19T04:06:27.633Z,11.72
2023-02-19T04:08:58.819Z,11.69
2023-02-19T04:11:27.635Z,11.87
2023-02-19T04:14:12.823Z,11.78
2023-02-19T04:16:45.602Z,11.72
2023-02-19T04:19:15.942Z,11.71
2023-02-19T04:21:44.553Z,11.78
2023-02-19T04:24:15.111Z,11.85
2023-02-19T04:26:43.233Z,11.70
2023-02-19T04:29:09.756Z,11.74
2023-02-19T04:31:37.103Z,11.81
2023-02-19T04:34:05.856Z,11.74
2023-02-19T04:36:33.180Z,11.71
2023-02-19T04:38:59.891Z,11.69
2023-02-19T04:41:26.586Z,11.72
2023-02-19T04:43:53.130Z,11.80
2023-02-19T04:46:19.905Z,11.72
2023-02-19T04:48:46.612Z,11.76
2023-02-19T04:51:13.400Z,11.62
2023-02-19T04:53:40.231Z,11.63
2023-02-19T04:56:15.283Z,11.82
2023-02-19T04:58:42.872Z,11.63
2023-02-19T05:01:10.556Z,11.68
2023-02-19T05:03:37.925Z,11.60
2023-02-19T05:06:06.662Z,11.74
2023-02-19T05:08:34.035Z,11.70
2023-02-19T05:11:02.856Z,11.90
2023-02-19T05:13:30.804Z,12.13
2023-02-19T05:16:00.431Z,12.19
2023-02-19T05:18:27.777Z,11.95
2023-02-19T05:20:54.466Z,11.91
2023-02-19T05:23:21.800Z,11.95
2023-02-19T05:25:48.489Z,11.77
2023-02-19T05:28:22.043Z,11.48
2023-02-19T05:30:51.204Z,11.48
2023-02-19T05:33:19.785Z,11.73
2023-02-19T05:35:48.727Z,11.73
2023-02-19T05:38:16.432Z,11.68
2023-02-19T05:40:43.992Z,11.67
2023-02-19T05:43:11.612Z,11.61
2023-02-19T05:45:38.352Z,11.87
2023-02-19T05:48:06.483Z,11.81
2023-02-19T05:50:35.658Z,11.89
2023-02-19T05:53:04.243Z,12.02
2023-02-19T05:55:35.274Z,11.84
2023-02-19T05:58:02.050Z,11.47
2023-02-19T06:00:28.728Z,11.16
2023-02-19T06:02:55.401Z,11.53
2023-02-19T06:05:22.113Z,11.98
2023-02-19T06:07:51.700Z,11.76
2023-02-19T06:10:18.491Z,11.97
2023-02-19T06:12:45.504Z,11.54
2023-02-19T06:15:12.195Z,11.39
2023-02-19T06:17:38.928Z,11.35
2023-02-19T06:20:05.880Z,11.25
2023-02-19T06:22:32.538Z,11.00
2023-02-19T06:24:59.147Z,10.85
2023-02-19T06:27:25.874Z,10.90
2023-02-19T06:29:52.623Z,10.96
2023-02-19T06:32:21.065Z,11.14
2023-02-19T06:34:47.724Z,11.26
2023-02-19T06:37:15.712Z,11.46
2023-02-19T06:39:43.762Z,11.65
2023-02-19T06:42:10.377Z,11.47
2023-02-19T06:44:37.105Z,11.35
2023-02-19T06:47:03.762Z,11.24
2023-02-19T06:49:30.363Z,11.29
2023-02-19T06:51:57.078Z,11.40
2023-02-19T06:54:25.794Z,11.23
2023-02-19T06:56:52.639Z,11.33
2023-02-19T06:59:19.391Z,11.57
2023-02-19T07:01:46.386Z,11.91
2023-02-19T07:04:13.210Z,11.90
2023-02-19T07:06:40.382Z,12.00
2023-02-19T07:09:08.532Z,11.75
2023-02-19T07:11:36.675Z,11.49
2023-02-19T07:14:05.388Z,11.15
2023-02-19T07:16:32.176Z,11.21
2023-02-19T07:19:00.154Z,11.18
2023-02-19T07:21:27.640Z,11.12
2023-02-19T07:23:54.519Z,11.16
2023-02-19T07:26:21.764Z,11.38
2023-02-19T07:28:50.336Z,11.28
2023-02-19T07:31:19.073Z,11.44
2023-02-19T07:33:46.855Z,11.63
2023-02-19T07:36:14.820Z,11.63
2023-02-19T07:38:41.442Z,11.82
2023-02-19T07:41:08.593Z,11.86
2023-02-19T07:43:37.542Z,11.79
2023-02-19T07:46:06.146Z,11.87
2023-02-19T07:48:34.242Z,12.10
2023-02-19T07:51:03.684Z,12.04
2023-02-19T07:53:31.257Z,12.02
2023-02-19T07:56:03.084Z,12.12
2023-02-19T07:58:30.691Z,12.21
2023-02-19T08:00:57.820Z,12.25
2023-02-19T08:03:24.529Z,12.18
2023-02-19T08:05:51.616Z,12.11
2023-02-19T08:08:18.188Z,12.12
2023-02-19T08:11:03.326Z,12.36
2023-02-19T08:13:31.980Z,12.41
2023-02-19T08:16:17.095Z,12.22
2023-02-19T08:18:48.203Z,12.43
2023-02-19T08:21:18.403Z,12.62
2023-02-19T08:23:46.540Z,12.57
2023-02-19T08:26:13.486Z,12.36
2023-02-19T08:28:40.322Z,12.35
2023-02-19T08:31:08.704Z,12.39
2023-02-19T08:33:35.642Z,12.43
2023-02-19T08:36:07.845Z,12.84
2023-02-19T08:38:36.504Z,12.56
2023-02-19T08:41:14.237Z,12.41
2023-02-19T08:43:41.903Z,12.36
2023-02-19T08:46:10.436Z,12.37
2023-02-19T08:48:37.832Z,12.38
2023-02-19T08:51:08.538Z,12.41
2023-02-19T08:53:36.754Z,12.51
2023-02-19T08:56:12.505Z,12.68
2023-02-19T08:58:39.817Z,12.70
2023-02-19T09:01:11.530Z,12.87
2023-02-19T09:03:38.558Z,13.21
2023-02-19T09:06:05.568Z,13.46
2023-02-19T09:08:32.295Z,13.48
2023-02-19T09:11:04.786Z,13.45
2023-02-19T09:13:31.414Z,13.42
2023-02-19T09:15:58.242Z,13.39
2023-02-19T09:18:26.354Z,13.32
2023-02-19T09:20:52.993Z,13.48
2023-02-19T09:23:19.666Z,13.56
2023-02-19T09:25:46.561Z,13.77
2023-02-19T09:28:13.125Z,13.86
2023-02-19T09:30:39.864Z,13.85
2023-02-19T09:33:06.825Z,13.83
2023-02-19T09:35:33.502Z,13.85
2023-02-19T09:38:02.050Z,13.96
2023-02-19T09:40:30.626Z,13.84
2023-02-19T09:42:57.739Z,13.87
2023-02-19T09:45:26.201Z,14.16
2023-02-19T09:47:55.135Z,14.17
2023-02-19T09:50:26.204Z,14.33
2023-02-19T09:53:00.085Z,14.39
2023-02-19T09:55:39.200Z,14.42
2023-02-19T09:58:22.311Z,14.09
2023-02-19T10:00:50.851Z,14.12
2023-02-19T10:03:30.720Z,13.90
2023-02-19T10:06:00.084Z,13.85
2023-02-19T10:08:26.805Z,13.80
2023-02-19T10:10:54.907Z,13.71
2023-02-19T10:13:27.838Z,13.76
2023-02-19T10:15:57.083Z,14.10
2023-02-19T10:18:28.302Z,14.12
2023-02-19T10:20:56.696Z,14.41
2023-02-19T10:23:24.871Z,14.75
2023-02-19T10:25:59.095Z,14.68
2023-02-19T10:28:32.201Z,14.74
2023-02-19T10:31:01.446Z,14.49
2023-02-19T10:33:28.764Z,14.42
2023-02-19T10:36:06.205Z,14.11
2023-02-19T10:38:35.584Z,14.40
2023-02-19T10:41:05.774Z,14.48
2023-02-19T10:43:37.236Z,14.44
2023-02-19T10:46:19.236Z,14.30
2023-02-19T10:49:07.665Z,14.04
2023-02-19T10:51:42.252Z,14.56
2023-02-19T10:54:24.450Z,14.77
2023-02-19T10:56:51.130Z,14.52
2023-02-19T10:59:28.664Z,14.21
2023-02-19T11:01:57.565Z,14.57
2023-02-19T11:04:26.017Z,14.15
2023-02-19T11:06:52.988Z,13.93
2023-02-19T11:09:37.346Z,14.39
2023-02-19T11:12:05.851Z,14.58
2023-02-19T11:14:34.319Z,14.25
2023-02-19T11:17:06.787Z,14.20
2023-02-19T11:19:40.670Z,14.03
2023-02-19T11:22:21.300Z,14.16
2023-02-19T11:24:50.472Z,14.21
2023-02-19T11:27:23.456Z,14.27
2023-02-19T11:29:50.807Z,14.36
2023-02-19T11:32:20.198Z,14.50
2023-02-19T11:34:48.157Z,14.34
2023-02-19T11:37:17.042Z,14.51
2023-02-19T11:39:46.718Z,14.57
2023-02-19T11:42:29.828Z,14.72
2023-02-19T11:45:02.638Z,14.81
2023-02-19T11:47:56.156Z,15.01
2023-02-19T11:51:00.470Z,14.40
2023-02-19T11:53:37.409Z,14.87
2023-02-19T11:56:19.473Z,15.11
2023-02-19T11:59:00.842Z,15.30
2023-02-19T12:01:46.450Z,15.34
2023-02-19T12:04:50.762Z,15.04
2023-02-19T12:07:42.165Z,14.83
2023-02-19T12:10:17.632Z,14.39
2023-02-19T12:12:51.517Z,14.70
2023-02-19T12:15:38.237Z,14.91
2023-02-19T12:18:05.699Z,15.21
2023-02-19T12:20:48.517Z,15.29
2023-02-19T12:23:15.553Z,15.15
2023-02-19T12:25:51.217Z,14.71
2023-02-19T12:28:23.805Z,14.74
2023-02-19T12:30:50.365Z,14.64
2023-02-19T12:33:42.107Z,14.70
2023-02-19T12:36:19.024Z,14.19
2023-02-19T12:38:58.304Z,14.46
2023-02-19T12:41:29.882Z,14.13
2023-02-19T12:44:04.455Z,14.06
2023-02-19T12:46:43.228Z,14.20
2023-02-19T12:49:22.087Z,14.11
2023-02-19T12:51:50.909Z,14.41
2023-02-19T12:54:20.429Z,14.48
2023-02-19T12:57:06.722Z,14.32
2023-02-19T13:00:11.690Z,14.37
2023-02-19T13:03:04.794Z,14.33
2023-02-19T13:05:44.221Z,14.57
2023-02-19T13:08:29.748Z,14.41
2023-02-19T13:11:27.389Z,14.15
2023-02-19T13:14:03.698Z,14.00
2023-02-19T13:16:33.587Z,13.85
2023-02-19T13:19:02.442Z,13.81
2023-02-19T13:21:51.298Z,14.16
2023-02-19T13:24:37.043Z,14.20
2023-02-19T13:27:13.618Z,14.36
2023-02-19T13:30:05.369Z,14.15
2023-02-19T13:32:51.528Z,14.06
2023-02-19T13:35:33.368Z,14.20
2023-02-19T13:38:02.307Z,14.31
2023-02-19T13:40:35.545Z,14.42
2023-02-19T13:43:05.633Z,14.38
2023-02-19T13:45:41.697Z,14.34
2023-02-19T13:48:14.753Z,14.71
2023-02-19T13:50:42.571Z,14.61
2023-02-19T13:53:46.125Z,14.45
2023-02-19T13:56:36.457Z,14.43
2023-02-19T13:59:36.135Z,14.38
2023-02-19T14:02:02.718Z,14.34
2023-02-19T14:04:32.488Z,14.33
2023-02-19T14:07:05.246Z,14.56
2023-02-19T14:09:37.787Z,14.29
2023-02-19T14:12:06.438Z,14.16
2023-02-19T14:14:39.284Z,14.39
2023-02-19T14:17:08.903Z,14.37
2023-02-19T14:19:41.735Z,14.09
2023-02-19T14:22:58.146Z,14.28
2023-02-19T14:25:31.065Z,14.42
2023-02-19T14:28:02.999Z,14.37
2023-02-19T14:30:31.859Z,14.52
2023-02-19T14:33:10.177Z,14.64
2023-02-19T14:35:43.648Z,14.73
2023-02-19T14:38:36.361Z,14.89
2023-02-19T14:41:04.128Z,14.64
2023-02-19T14:43:31.630Z,14.43
2023-02-19T14:46:01.796Z,14.32
2023-02-19T14:48:35.722Z,14.23
2023-02-19T14:51:07.285Z,14.22
2023-02-19T14:53:38.727Z,14.41
2023-02-19T14:56:07.449Z,14.52
2023-02-19T14:58:34.209Z,14.35
2023-02-19T15:01:01.113Z,14.37
2023-02-19T15:03:33.559Z,14.26
2023-02-19T15:06:12.802Z,14.06
2023-02-19T15:08:45.237Z,14.08
2023-02-19T15:11:21.028Z,14.16
2023-02-19T15:13:54.116Z,14.38
2023-02-19T15:16:25.821Z,14.14
2023-02-19T15:18:54.423Z,14.30
2023-02-19T15:21:29.748Z,14.22
2023-02-19T15:23:59.637Z,14.31
2023-02-19T15:26:36.414Z,14.22
2023-02-19T15:29:24.511Z,13.76
2023-02-19T15:31:54.189Z,13.75
2023-02-19T15:34:28.612Z,13.97
2023-02-19T15:37:04.364Z,13.89
2023-02-19T15:39:38.037Z,13.89
2023-02-19T15:42:06.739Z,14.09
2023-02-19T15:44:38.971Z,14.00
2023-02-19T15:47:28.756Z,13.98
2023-02-19T15:50:03.799Z,14.15
2023-02-19T15:52:44.695Z,14.06
2023-02-19T15:55:37.234Z,14.10
2023-02-19T15:58:15.845Z,13.86
2023-02-19T16:00:45.174Z,13.78
2023-02-19T16:03:20.810Z,13.85
2023-02-19T16:06:05.689Z,13.87
2023-02-19T16:08:37.503Z,13.95
2023-02-19T16:11:07.473Z,14.06
2023-02-19T16:13:35.032Z,14.07
2023-02-19T16:16:27.884Z,14.05
2023-02-19T16:18:54.614Z,13.88
2023-02-19T16:21:23.846Z,13.60
2023-02-19T16:23:59.646Z,13.50
2023-02-19T16:26:26.520Z,13.47
2023-02-19T16:28:54.167Z,13.45
2023-02-19T16:31:23.775Z,13.46
2023-02-19T16:33:51.890Z,13.47
2023-02-19T16:36:41.560Z,13.59
2023-02-19T16:39:08.131Z,13.54
2023-02-19T16:41:53.643Z,13.42
2023-02-19T16:44:32.354Z,13.59
2023-02-19T16:47:04.980Z,13.27
2023-02-19T16:49:32.111Z,13.23
2023-02-19T16:52:04.393Z,13.09
2023-02-19T16:54:31.732Z,13.50
2023-02-19T16:56:58.456Z,13.36
2023-02-19T16:59:25.013Z,13.47
2023-02-19T17:01:51.845Z,13.23
2023-02-19T17:04:18.629Z,13.35
2023-02-19T17:06:45.680Z,13.15
2023-02-19T17:09:12.586Z,13.08
2023-02-19T17:11:39.698Z,13.10
2023-02-19T17:14:06.383Z,13.22
2023-02-19T17:16:40.577Z,13.22
2023-02-19T17:19:13.558Z,12.98
2023-02-19T17:21:40.404Z,13.04
2023-02-19T17:24:07.178Z,13.14
2023-02-19T17:26:34.088Z,13.18
2023-02-19T17:29:02.799Z,13.37
2023-02-19T17:31:29.524Z,13.36
2023-02-19T17:33:56.386Z,13.08
2023-02-19T17:36:27.156Z,13.22
2023-02-19T17:38:55.098Z,13.18
2023-02-19T17:41:21.842Z,12.84
2023-02-19T17:43:50.724Z,13.04
2023-02-19T17:46:18.793Z,12.91
2023-02-19T17:48:45.655Z,12.85
2023-02-19T17:51:12.799Z,12.80
2023-02-19T17:53:39.527Z,13.03
2023-02-19T17:56:06.594Z,13.17
2023-02-19T17:58:33.314Z,12.92
2023-02-19T18:00:59.941Z,12.81
2023-02-19T18:03:26.764Z,12.82
2023-02-19T18:05:53.454Z,12.80
2023-02-19T18:08:20.036Z,12.80
2023-02-19T18:10:46.843Z,12.75
2023-02-19T18:13:13.514Z,12.82
2023-02-19T18:15:40.054Z,13.08
2023-02-19T18:18:06.706Z,13.16
2023-02-19T18:20:33.511Z,13.04
2023-02-19T18:23:00.212Z,12.86
2023-02-19T18:25:26.961Z,12.84
2023-02-19T18:27:53.837Z,12.99
2023-02-19T18:30:22.831Z,12.95
2023-02-19T18:32:50.259Z,12.71
2023-02-19T18:35:18.852Z,12.48
2023-02-19T18:37:45.584Z,12.49
2023-02-19T18:40:12.694Z,12.59
2023-02-19T18:42:40.018Z,12.59
2023-02-19T18:45:07.026Z,12.51
2023-02-19T18:47:33.692Z,12.46
2023-02-19T18:50:00.374Z,12.51
2023-02-19T18:52:28.012Z,12.42
2023-02-19T18:54:57.257Z,12.37
2023-02-19T18:57:24.884Z,12.40
2023-02-19T18:59:51.724Z,12.48
2023-02-19T19:02:19.394Z,12.55
2023-02-19T19:04:51.090Z,12.35
2023-02-19T19:07:18.355Z,12.64
2023-02-19T19:09:45.055Z,12.60
2023-02-19T19:12:11.940Z,12.54
2023-02-19T19:14:38.549Z,12.30
2023-02-19T19:17:05.491Z,12.25
2023-02-19T19:19:32.272Z,12.18
2023-02-19T19:21:58.874Z,12.21
2023-02-19T19:24:25.661Z,12.37
2023-02-19T19:26:53.321Z,12.52
2023-02-19T19:29:22.172Z,12.68
2023-02-19T19:31:49.594Z,12.39
2023-02-19T19:34:17.376Z,12.09
2023-02-19T19:36:44.576Z,12.06
2023-02-19T19:39:11.997Z,12.20
2023-02-19T19:41:38.801Z,12.19
2023-02-19T19:44:07.076Z,12.37
2023-02-19T19:46:33.927Z,12.17
2023-02-19T19:49:01.094Z,12.39
2023-02-19T19:51:32.209Z,12.21
2023-02-19T19:53:58.805Z,12.19
2023-02-19T19:56:26.101Z,12.16
2023-02-19T19:58:52.710Z,12.30
2023-02-19T20:01:21.274Z,12.23
2023-02-19T20:03:48.336Z,12.31
2023-02-19T20:06:15.076Z,12.25
2023-02-19T20:08:41.655Z,12.19
2023-02-19T20:11:10.290Z,12.39
2023-02-19T20:13:37.417Z,12.48
2023-02-19T20:16:04.339Z,12.50
2023-02-19T20:18:31.093Z,12.51
2023-02-19T20:20:57.839Z,12.52
2023-02-19T20:23:26.152Z,12.84
2023-02-19T20:25:54.145Z,12.70
2023-02-19T20:28:20.791Z,12.71
2023-02-19T20:30:47.357Z,12.64
2023-02-19T20:33:14.081Z,12.55
2023-02-19T20:35:40.738Z,12.49
2023-02-19T20:38:07.383Z,12.65
2023-02-19T20:40:35.588Z,12.67
2023-02-19T20:43:03.099Z,12.71
2023-02-19T20:45:30.965Z,12.69
2023-02-19T20:47:57.741Z,12.62
2023-02-19T20:50:25.730Z,12.45
2023-02-19T20:52:55.878Z,12.42
2023-02-19T20:55:23.985Z,12.57
2023-02-19T20:57:50.754Z,12.33
2023-02-19T21:00:18.164Z,12.27
2023-02-19T21:02:47.007Z,12.14
2023-02-19T21:05:14.425Z,12.03
2023-02-19T21:07:40.986Z,12.15
2023-02-19T21:10:08.535Z,12.20
2023-02-19T21:12:36.504Z,11.85
2023-02-19T21:15:04.605Z,11.96
2023-02-19T21:17:31.342Z,11.90
2023-02-19T21:19:57.967Z,11.49
2023-02-19T21:22:24.511Z,11.70
2023-02-19T21:24:53.267Z,11.91
2023-02-19T21:27:20.500Z,11.80
2023-02-19T21:29:47.889Z,11.78
2023-02-19T21:32:14.692Z,11.75
2023-02-19T21:34:42.283Z,11.71
2023-02-19T21:37:08.838Z,11.69
2023-02-19T21:39:35.511Z,11.51
2023-02-19T21:42:03.900Z,11.55
2023-02-19T21:44:30.480Z,11.56
2023-02-19T21:46:57.382Z,11.69
2023-02-19T21:49:24.319Z,11.63
2023-02-19T21:51:51.012Z,11.62
2023-02-19T21:54:24.846Z,11.50
2023-02-19T21:56:52.814Z,11.41
2023-02-19T21:59:20.441Z,11.12
2023-02-19T22:01:47.717Z,11.27
2023-02-19T22:04:17.004Z,11.18
2023-02-19T22:06:43.869Z,11.23
2023-02-19T22:09:11.773Z,11.19
2023-02-19T22:11:38.625Z,10.99
2023-02-19T22:14:05.240Z,10.82
2023-02-19T22:16:32.198Z,11.04
2023-02-19T22:19:00.022Z,11.18
2023-02-19T22:21:32.541Z,11.13
2023-02-19T22:24:00.343Z,11.00
2023-02-19T22:26:31.668Z,10.93
2023-02-19T22:28:59.619Z,10.91
2023-02-19T22:31:27.970Z,10.76
2023-02-19T22:33:56.166Z,10.87
2023-02-19T22:36:28.072Z,10.88
2023-02-19T22:38:55.071Z,10.79
2023-02-19T22:41:22.410Z,11.06
2023-02-19T22:43:49.763Z,11.00
2023-02-19T22:46:21.977Z,11.04
2023-02-19T22:48:48.773Z,11.08
2023-02-19T22:51:18.208Z,10.98
2023-02-19T22:53:53.296Z,10.66
2023-02-19T22:56:22.488Z,10.75
2023-02-19T22:58:49.367Z,10.80
2023-02-19T23:01:16.389Z,10.82
2023-02-19T23:03:58.111Z,10.64
2023-02-19T23:06:27.078Z,10.80
2023-02-19T23:08:55.274Z,10.90
2023-02-19T23:11:24.453Z,11.14
2023-02-19T23:13:51.668Z,10.99
2023-02-19T23:16:18.461Z,11.19
2023-02-19T23:18:45.252Z,11.30
2023-02-19T23:21:13.122Z,11.15
2023-02-19T23:23:43.061Z,10.95
2023-02-19T23:26:09.846Z,11.15
2023-02-19T23:28:36.617Z,10.95
2023-02-19T23:31:03.237Z,10.78
2023-02-19T23:33:29.777Z,10.70
2023-02-19T23:35:56.869Z,10.90
2023-02-19T23:38:23.779Z,11.03
2023-02-19T23:40:50.345Z,10.98
2023-02-19T23:43:17.112Z,10.85
2023-02-19T23:45:44.036Z,10.96
2023-02-19T23:48:10.623Z,10.69
2023-02-19T23:50:37.375Z,10.75
2023-02-19T23:53:04.565Z,10.83
2023-02-19T23:55:31.154Z,10.79
2023-02-19T23:57:57.927Z,10.82
